sensor_id;sensor_type;location;lat;lon;timestamp;temperature;humidity
16243;DHT22;11719;51.052;6.982;2024-02-28T00:00:10;7.50;99.90
16243;DHT22;11719;51.052;6.982;2024-02-28T00:02:37;7.60;99.90
16243;DHT22;11719;51.052;6.982;2024-02-28T00:05:06;7.60;99.90
16243;DHT22;11719;51.052;6.982;2024-02-28T00:07:34;7.60;99.90
16243;DHT22;11719;51.052;6.982;2024-02-28T00:10:00;7.60;99.90
16243;DHT22;11719;51.052;6.982;2024-02-28T00:12:29;7.60;99.90
16243;DHT22;11719;51.052;6.982;2024-02-28T00:14:55;7.60;99.90
16243;DHT22;11719;51.052;6.982;2024-02-28T00:17:21;7.60;99.90
16243;DHT22;11719;51.052;6.982;2024-02-28T00:19:49;7.50;99.90
16243;DHT22;11719;51.052;6.982;2024-02-28T00:22:15;7.60;99.90
16243;DHT22;11719;51.052;6.982;2024-02-28T00:24:41;7.50;99.90
16243;DHT22;11719;51.052;6.982;2024-02-28T00:27:12;7.50;99.90
16243;DHT22;11719;51.052;6.982;2024-02-28T00:29:37;7.60;99.90
16243;DHT22;11719;51.052;6.982;2024-02-28T00:32:06;7.60;99.90
16243;DHT22;11719;51.052;6.982;2024-02-28T00:34:34;7.60;99.90
16243;DHT22;11719;51.052;6.982;2024-02-28T00:37:00;7.60;99.90
16243;DHT22;11719;51.052;6.982;2024-02-28T00:39:26;7.60;99.90
16243;DHT22;11719;51.052;6.982;2024-02-28T00:41:52;7.60;99.90
16243;DHT22;11719;51.052;6.982;2024-02-28T00:44:18;7.60;99.90
16243;DHT22;11719;51.052;6.982;2024-02-28T00:46:44;7.60;99.90
16243;DHT22;11719;51.052;6.982;2024-02-28T00:49:12;7.50;99.90
16243;DHT22;11719;51.052;6.982;2024-02-28T00:51:38;7.60;99.90
16243;DHT22;11719;51.052;6.982;2024-02-28T00:54:04;7.60;99.90
16243;DHT22;11719;51.052;6.982;2024-02-28T00:56:30;7.60;99.90
16243;DHT22;11719;51.052;6.982;2024-02-28T00:58:56;7.60;99.90
16243;DHT22;11719;51.052;6.982;2024-02-28T01:01:22;7.70;99.90
16243;DHT22;11719;51.052;6.982;2024-02-28T01:03:48;7.80;99.90
16243;DHT22;11719;51.052;6.982;2024-02-28T01:06:16;7.80;99.90
16243;DHT22;11719;51.052;6.982;2024-02-28T01:08:42;7.90;99.90
16243;DHT22;11719;51.052;6.982;2024-02-28T01:11:08;8.00;99.90
16243;DHT22;11719;51.052;6.982;2024-02-28T01:13:34;7.90;99.90
16243;DHT22;11719;51.052;6.982;2024-02-28T01:15:59;7.90;99.90
16243;DHT22;11719;51.052;6.982;2024-02-28T01:18:25;8.00;99.90
16243;DHT22;11719;51.052;6.982;2024-02-28T01:20:53;7.90;99.90
16243;DHT22;11719;51.052;6.982;2024-02-28T01:23:19;7.90;99.90
16243;DHT22;11719;51.052;6.982;2024-02-28T01:25:45;8.00;99.90
16243;DHT22;11719;51.052;6.982;2024-02-28T01:28:13;8.00;99.90
16243;DHT22;11719;51.052;6.982;2024-02-28T01:30:41;8.00;99.90
16243;DHT22;11719;51.052;6.982;2024-02-28T01:33:07;8.10;99.90
16243;DHT22;11719;51.052;6.982;2024-02-28T01:35:33;8.00;99.90
16243;DHT22;11719;51.052;6.982;2024-02-28T01:38:01;8.00;99.90
16243;DHT22;11719;51.052;6.982;2024-02-28T01:40:29;8.10;99.90
16243;DHT22;11719;51.052;6.982;2024-02-28T01:43:11;8.10;99.90
16243;DHT22;11719;51.052;6.982;2024-02-28T01:45:37;8.20;99.90
16243;DHT22;11719;51.052;6.982;2024-02-28T01:48:03;8.20;99.90
16243;DHT22;11719;51.052;6.982;2024-02-28T01:50:38;8.30;99.90
16243;DHT22;11719;51.052;6.982;2024-02-28T01:53:06;8.40;99.90
16243;DHT22;11719;51.052;6.982;2024-02-28T01:55:39;8.60;99.90
16243;DHT22;11719;51.052;6.982;2024-02-28T01:58:10;8.60;99.90
16243;DHT22;11719;51.052;6.982;2024-02-28T02:00:36;8.50;99.90
16243;DHT22;11719;51.052;6.982;2024-02-28T02:03:03;8.60;99.90
16243;DHT22;11719;51.052;6.982;2024-02-28T02:05:30;8.70;99.90
16243;DHT22;11719;51.052;6.982;2024-02-28T02:07:58;8.70;99.90
16243;DHT22;11719;51.052;6.982;2024-02-28T02:10:27;8.60;99.90
16243;DHT22;11719;51.052;6.982;2024-02-28T02:12:53;8.60;99.90
16243;DHT22;11719;51.052;6.982;2024-02-28T02:15:19;8.50;99.90
16243;DHT22;11719;51.052;6.982;2024-02-28T02:17:45;8.50;99.90
16243;DHT22;11719;51.052;6.982;2024-02-28T02:20:14;8.50;99.90
16243;DHT22;11719;51.052;6.982;2024-02-28T02:22:46;8.40;99.90
16243;DHT22;11719;51.052;6.982;2024-02-28T02:25:15;8.50;99.90
16243;DHT22;11719;51.052;6.982;2024-02-28T02:27:40;8.50;99.90
16243;DHT22;11719;51.052;6.982;2024-02-28T02:30:06;8.60;99.90
16243;DHT22;11719;51.052;6.982;2024-02-28T02:32:41;8.50;99.90
16243;DHT22;11719;51.052;6.982;2024-02-28T02:35:10;8.50;99.90
16243;DHT22;11719;51.052;6.982;2024-02-28T02:37:38;8.50;99.90
16243;DHT22;11719;51.052;6.982;2024-02-28T02:40:08;8.50;99.90
16243;DHT22;11719;51.052;6.982;2024-02-28T02:42:35;8.60;99.90
16243;DHT22;11719;51.052;6.982;2024-02-28T02:45:04;8.50;99.90
16243;DHT22;11719;51.052;6.982;2024-02-28T02:47:30;8.50;99.90
16243;DHT22;11719;51.052;6.982;2024-02-28T02:50:08;8.60;99.90
16243;DHT22;11719;51.052;6.982;2024-02-28T02:52:33;8.60;99.90
16243;DHT22;11719;51.052;6.982;2024-02-28T02:55:08;8.70;99.90
16243;DHT22;11719;51.052;6.982;2024-02-28T02:57:56;8.70;99.90
16243;DHT22;11719;51.052;6.982;2024-02-28T03:03:15;8.70;99.90
16243;DHT22;11719;51.052;6.982;2024-02-28T03:08:22;8.80;99.90
16243;DHT22;11719;51.052;6.982;2024-02-28T03:10:50;8.80;99.90
16243;DHT22;11719;51.052;6.982;2024-02-28T03:13:16;8.80;99.90
16243;DHT22;11719;51.052;6.982;2024-02-28T03:15:49;8.80;99.90
16243;DHT22;11719;51.052;6.982;2024-02-28T03:18:15;8.70;99.90
16243;DHT22;11719;51.052;6.982;2024-02-28T03:20:49;8.70;99.90
16243;DHT22;11719;51.052;6.982;2024-02-28T03:23:14;8.80;99.90
16243;DHT22;11719;51.052;6.982;2024-02-28T03:25:43;8.70;99.90
16243;DHT22;11719;51.052;6.982;2024-02-28T03:28:28;8.70;99.90
16243;DHT22;11719;51.052;6.982;2024-02-28T03:30:53;8.70;99.90
16243;DHT22;11719;51.052;6.982;2024-02-28T03:33:19;8.70;99.90
16243;DHT22;11719;51.052;6.982;2024-02-28T03:35:59;8.70;99.90
16243;DHT22;11719;51.052;6.982;2024-02-28T03:38:25;8.70;99.90
16243;DHT22;11719;51.052;6.982;2024-02-28T03:40:53;8.70;99.90
16243;DHT22;11719;51.052;6.982;2024-02-28T03:43:19;8.80;99.90
16243;DHT22;11719;51.052;6.982;2024-02-28T03:45:47;8.80;99.90
16243;DHT22;11719;51.052;6.982;2024-02-28T03:48:14;8.80;99.90
16243;DHT22;11719;51.052;6.982;2024-02-28T03:50:40;8.80;99.90
16243;DHT22;11719;51.052;6.982;2024-02-28T03:53:27;8.90;99.90
16243;DHT22;11719;51.052;6.982;2024-02-28T03:55:53;8.90;99.90
16243;DHT22;11719;51.052;6.982;2024-02-28T03:58:21;8.90;99.90
16243;DHT22;11719;51.052;6.982;2024-02-28T04:00:53;8.90;99.90
16243;DHT22;11719;51.052;6.982;2024-02-28T04:03:26;8.90;99.90
16243;DHT22;11719;51.052;6.982;2024-02-28T04:06:01;9.00;99.90
16243;DHT22;11719;51.052;6.982;2024-02-28T04:08:26;9.00;99.90
16243;DHT22;11719;51.052;6.982;2024-02-28T04:10:52;8.90;99.90
16243;DHT22;11719;51.052;6.982;2024-02-28T04:13:36;8.90;99.90
16243;DHT22;11719;51.052;6.982;2024-02-28T04:16:02;8.80;99.90
16243;DHT22;11719;51.052;6.982;2024-02-28T04:18:37;8.80;99.90
16243;DHT22;11719;51.052;6.982;2024-02-28T04:21:09;8.90;99.90
16243;DHT22;11719;51.052;6.982;2024-02-28T04:23:38;8.90;99.90
16243;DHT22;11719;51.052;6.982;2024-02-28T04:26:07;9.00;99.90
16243;DHT22;11719;51.052;6.982;2024-02-28T04:28:33;9.10;99.90
16243;DHT22;11719;51.052;6.982;2024-02-28T04:31:04;9.10;99.90
16243;DHT22;11719;51.052;6.982;2024-02-28T04:33:30;9.00;99.90
16243;DHT22;11719;51.052;6.982;2024-02-28T04:36:03;9.00;99.90
16243;DHT22;11719;51.052;6.982;2024-02-28T04:38:28;9.00;99.90
16243;DHT22;11719;51.052;6.982;2024-02-28T04:40:55;9.10;99.90
16243;DHT22;11719;51.052;6.982;2024-02-28T04:43:21;9.10;99.90
16243;DHT22;11719;51.052;6.982;2024-02-28T04:45:46;9.10;99.90
16243;DHT22;11719;51.052;6.982;2024-02-28T04:48:12;9.00;99.90
16243;DHT22;11719;51.052;6.982;2024-02-28T04:50:44;9.00;99.90
16243;DHT22;11719;51.052;6.982;2024-02-28T04:53:16;9.00;99.90
16243;DHT22;11719;51.052;6.982;2024-02-28T04:55:44;9.00;99.90
16243;DHT22;11719;51.052;6.982;2024-02-28T04:58:10;9.00;99.90
16243;DHT22;11719;51.052;6.982;2024-02-28T05:00:36;9.00;99.90
16243;DHT22;11719;51.052;6.982;2024-02-28T05:03:06;9.00;99.90
16243;DHT22;11719;51.052;6.982;2024-02-28T05:05:35;9.00;99.90
16243;DHT22;11719;51.052;6.982;2024-02-28T05:08:06;9.10;99.90
16243;DHT22;11719;51.052;6.982;2024-02-28T05:10:32;9.20;99.90
16243;DHT22;11719;51.052;6.982;2024-02-28T05:12:59;9.20;99.90
16243;DHT22;11719;51.052;6.982;2024-02-28T05:15:30;9.10;99.90
16243;DHT22;11719;51.052;6.982;2024-02-28T05:17:56;9.10;99.90
16243;DHT22;11719;51.052;6.982;2024-02-28T05:20:30;9.10;99.90
16243;DHT22;11719;51.052;6.982;2024-02-28T05:23:00;9.10;99.90
16243;DHT22;11719;51.052;6.982;2024-02-28T05:25:28;9.00;99.90
16243;DHT22;11719;51.052;6.982;2024-02-28T05:27:59;9.00;99.90
16243;DHT22;11719;51.052;6.982;2024-02-28T05:30:25;9.00;99.90
16243;DHT22;11719;51.052;6.982;2024-02-28T05:32:50;9.00;99.90
16243;DHT22;11719;51.052;6.982;2024-02-28T05:35:19;9.00;99.90
16243;DHT22;11719;51.052;6.982;2024-02-28T05:37:45;9.00;99.90
16243;DHT22;11719;51.052;6.982;2024-02-28T05:40:20;9.00;99.90
16243;DHT22;11719;51.052;6.982;2024-02-28T05:42:45;9.00;99.90
16243;DHT22;11719;51.052;6.982;2024-02-28T05:45:18;9.10;99.90
16243;DHT22;11719;51.052;6.982;2024-02-28T05:47:44;9.10;99.90
16243;DHT22;11719;51.052;6.982;2024-02-28T05:50:17;9.10;99.90
16243;DHT22;11719;51.052;6.982;2024-02-28T05:53:11;9.00;99.90
16243;DHT22;11719;51.052;6.982;2024-02-28T05:55:36;9.00;99.90
16243;DHT22;11719;51.052;6.982;2024-02-28T05:58:08;9.10;99.90
16243;DHT22;11719;51.052;6.982;2024-02-28T06:01:08;9.20;99.90
16243;DHT22;11719;51.052;6.982;2024-02-28T06:03:35;9.20;99.90
16243;DHT22;11719;51.052;6.982;2024-02-28T06:06:22;9.20;99.90
16243;DHT22;11719;51.052;6.982;2024-02-28T06:08:48;9.30;99.90
16243;DHT22;11719;51.052;6.982;2024-02-28T06:11:14;9.30;99.90
16243;DHT22;11719;51.052;6.982;2024-02-28T06:13:42;9.30;99.90
16243;DHT22;11719;51.052;6.982;2024-02-28T06:16:13;9.30;99.90
16243;DHT22;11719;51.052;6.982;2024-02-28T06:18:51;9.20;99.90
16243;DHT22;11719;51.052;6.982;2024-02-28T06:21:17;9.20;99.90
16243;DHT22;11719;51.052;6.982;2024-02-28T06:24:04;9.20;99.90
16243;DHT22;11719;51.052;6.982;2024-02-28T06:26:30;9.20;99.90
16243;DHT22;11719;51.052;6.982;2024-02-28T06:29:13;9.20;99.90
16243;DHT22;11719;51.052;6.982;2024-02-28T06:31:51;9.20;99.90
16243;DHT22;11719;51.052;6.982;2024-02-28T06:34:22;9.20;99.90
16243;DHT22;11719;51.052;6.982;2024-02-28T06:36:57;9.20;99.90
16243;DHT22;11719;51.052;6.982;2024-02-28T06:39:27;9.20;99.90
16243;DHT22;11719;51.052;6.982;2024-02-28T06:41:52;9.10;99.90
16243;DHT22;11719;51.052;6.982;2024-02-28T06:44:34;9.10;99.90
16243;DHT22;11719;51.052;6.982;2024-02-28T06:46:59;9.10;99.90
16243;DHT22;11719;51.052;6.982;2024-02-28T06:49:25;9.20;99.90
16243;DHT22;11719;51.052;6.982;2024-02-28T06:51:55;9.20;99.90
16243;DHT22;11719;51.052;6.982;2024-02-28T06:54:24;9.10;99.90
16243;DHT22;11719;51.052;6.982;2024-02-28T06:56:58;9.10;99.90
16243;DHT22;11719;51.052;6.982;2024-02-28T06:59:26;9.20;99.90
16243;DHT22;11719;51.052;6.982;2024-02-28T07:01:52;9.20;99.90
16243;DHT22;11719;51.052;6.982;2024-02-28T07:04:24;9.20;99.90
16243;DHT22;11719;51.052;6.982;2024-02-28T07:06:50;9.20;99.90
16243;DHT22;11719;51.052;6.982;2024-02-28T07:09:16;9.20;99.90
16243;DHT22;11719;51.052;6.982;2024-02-28T07:11:41;9.20;99.90
16243;DHT22;11719;51.052;6.982;2024-02-28T07:14:27;9.20;99.90
16243;DHT22;11719;51.052;6.982;2024-02-28T07:17:07;9.20;99.90
16243;DHT22;11719;51.052;6.982;2024-02-28T07:19:37;9.10;99.90
16243;DHT22;11719;51.052;6.982;2024-02-28T07:22:03;9.20;99.90
16243;DHT22;11719;51.052;6.982;2024-02-28T07:24:32;9.20;99.90
16243;DHT22;11719;51.052;6.982;2024-02-28T07:26:57;9.30;99.90
16243;DHT22;11719;51.052;6.982;2024-02-28T07:29:31;9.40;99.90
16243;DHT22;11719;51.052;6.982;2024-02-28T07:32:01;9.50;99.90
16243;DHT22;11719;51.052;6.982;2024-02-28T07:34:28;9.50;99.90
16243;DHT22;11719;51.052;6.982;2024-02-28T07:37:00;9.50;99.90
16243;DHT22;11719;51.052;6.982;2024-02-28T07:39:26;9.50;99.90
16243;DHT22;11719;51.052;6.982;2024-02-28T07:42:09;9.60;99.90
16243;DHT22;11719;51.052;6.982;2024-02-28T07:44:44;9.60;99.90
16243;DHT22;11719;51.052;6.982;2024-02-28T07:47:19;9.60;99.90
16243;DHT22;11719;51.052;6.982;2024-02-28T07:49:48;9.70;99.90
16243;DHT22;11719;51.052;6.982;2024-02-28T07:52:27;9.70;99.90
16243;DHT22;11719;51.052;6.982;2024-02-28T07:54:53;9.70;99.90
16243;DHT22;11719;51.052;6.982;2024-02-28T07:57:28;9.70;99.90
16243;DHT22;11719;51.052;6.982;2024-02-28T07:59:54;9.70;99.90
16243;DHT22;11719;51.052;6.982;2024-02-28T08:02:33;9.60;99.90
16243;DHT22;11719;51.052;6.982;2024-02-28T08:05:07;9.60;99.90
16243;DHT22;11719;51.052;6.982;2024-02-28T08:10:31;9.50;99.90
16243;DHT22;11719;51.052;6.982;2024-02-28T08:13:12;9.50;99.90
16243;DHT22;11719;51.052;6.982;2024-02-28T08:16:06;9.60;99.90
16243;DHT22;11719;51.052;6.982;2024-02-28T08:18:59;9.50;99.90
16243;DHT22;11719;51.052;6.982;2024-02-28T08:21:59;9.60;99.90
16243;DHT22;11719;51.052;6.982;2024-02-28T08:24:42;9.50;99.90
16243;DHT22;11719;51.052;6.982;2024-02-28T08:27:15;9.50;99.90
16243;DHT22;11719;51.052;6.982;2024-02-28T08:29:53;9.60;99.90
16243;DHT22;11719;51.052;6.982;2024-02-28T08:32:27;9.80;99.90
16243;DHT22;11719;51.052;6.982;2024-02-28T08:34:53;10.00;99.90
16243;DHT22;11719;51.052;6.982;2024-02-28T08:37:24;10.20;99.90
16243;DHT22;11719;51.052;6.982;2024-02-28T08:40:04;10.10;99.90
16243;DHT22;11719;51.052;6.982;2024-02-28T08:43:06;10.20;99.90
16243;DHT22;11719;51.052;6.982;2024-02-28T08:45:54;10.20;99.90
16243;DHT22;11719;51.052;6.982;2024-02-28T08:48:44;10.70;99.90
16243;DHT22;11719;51.052;6.982;2024-02-28T08:51:25;10.90;99.90
16243;DHT22;11719;51.052;6.982;2024-02-28T08:57:13;10.70;99.90
16243;DHT22;11719;51.052;6.982;2024-02-28T08:59:56;10.90;99.90
16243;DHT22;11719;51.052;6.982;2024-02-28T09:02:31;10.90;99.90
16243;DHT22;11719;51.052;6.982;2024-02-28T09:05:03;10.80;99.90
16243;DHT22;11719;51.052;6.982;2024-02-28T09:07:53;10.70;99.90
16243;DHT22;11719;51.052;6.982;2024-02-28T09:10:42;10.60;99.90
16243;DHT22;11719;51.052;6.982;2024-02-28T09:13:17;10.50;99.90
16243;DHT22;11719;51.052;6.982;2024-02-28T09:16:09;10.50;99.90
16243;DHT22;11719;51.052;6.982;2024-02-28T09:18:56;10.50;99.90
16243;DHT22;11719;51.052;6.982;2024-02-28T09:21:35;10.50;99.90
16243;DHT22;11719;51.052;6.982;2024-02-28T09:24:26;10.50;99.90
16243;DHT22;11719;51.052;6.982;2024-02-28T09:26:53;10.50;99.90
16243;DHT22;11719;51.052;6.982;2024-02-28T09:29:30;10.40;99.90
16243;DHT22;11719;51.052;6.982;2024-02-28T09:32:05;10.80;99.90
16243;DHT22;11719;51.052;6.982;2024-02-28T09:34:52;10.90;99.90
16243;DHT22;11719;51.052;6.982;2024-02-28T09:37:39;11.30;99.90
16243;DHT22;11719;51.052;6.982;2024-02-28T09:40:23;11.00;99.90
16243;DHT22;11719;51.052;6.982;2024-02-28T09:43:37;10.80;99.90
16243;DHT22;11719;51.052;6.982;2024-02-28T09:46:26;10.60;99.90
16243;DHT22;11719;51.052;6.982;2024-02-28T09:49:04;10.60;99.90
16243;DHT22;11719;51.052;6.982;2024-02-28T09:51:55;10.60;99.90
16243;DHT22;11719;51.052;6.982;2024-02-28T09:54:25;10.80;99.90
16243;DHT22;11719;51.052;6.982;2024-02-28T09:57:10;11.00;99.90
16243;DHT22;11719;51.052;6.982;2024-02-28T10:00:19;10.90;99.90
16243;DHT22;11719;51.052;6.982;2024-02-28T10:03:38;10.80;99.90
16243;DHT22;11719;51.052;6.982;2024-02-28T10:06:13;10.70;99.90
16243;DHT22;11719;51.052;6.982;2024-02-28T10:09:16;10.70;99.90
16243;DHT22;11719;51.052;6.982;2024-02-28T10:12:08;10.80;99.90
16243;DHT22;11719;51.052;6.982;2024-02-28T10:14:52;10.90;99.90
16243;DHT22;11719;51.052;6.982;2024-02-28T10:17:41;10.90;99.90
16243;DHT22;11719;51.052;6.982;2024-02-28T10:20:17;11.10;99.90
16243;DHT22;11719;51.052;6.982;2024-02-28T10:23:24;11.10;99.90
16243;DHT22;11719;51.052;6.982;2024-02-28T10:26:41;11.20;99.90
16243;DHT22;11719;51.052;6.982;2024-02-28T10:29:55;11.60;99.90
16243;DHT22;11719;51.052;6.982;2024-02-28T10:32:28;11.60;99.90
16243;DHT22;11719;51.052;6.982;2024-02-28T10:35:14;11.50;99.90
16243;DHT22;11719;51.052;6.982;2024-02-28T10:37:59;11.50;99.90
16243;DHT22;11719;51.052;6.982;2024-02-28T10:40:42;11.70;99.90
16243;DHT22;11719;51.052;6.982;2024-02-28T10:43:27;11.90;99.90
16243;DHT22;11719;51.052;6.982;2024-02-28T10:46:15;12.20;99.90
16243;DHT22;11719;51.052;6.982;2024-02-28T10:48:55;12.20;99.90
16243;DHT22;11719;51.052;6.982;2024-02-28T10:54:40;11.90;99.90
16243;DHT22;11719;51.052;6.982;2024-02-28T10:57:18;12.00;99.90
16243;DHT22;11719;51.052;6.982;2024-02-28T10:59:45;12.10;99.90
16243;DHT22;11719;51.052;6.982;2024-02-28T11:02:28;12.20;99.90
16243;DHT22;11719;51.052;6.982;2024-02-28T11:04:56;12.30;99.90
16243;DHT22;11719;51.052;6.982;2024-02-28T11:07:24;12.50;99.90
16243;DHT22;11719;51.052;6.982;2024-02-28T11:10:07;12.70;99.90
16243;DHT22;11719;51.052;6.982;2024-02-28T11:12:33;12.80;99.90
16243;DHT22;11719;51.052;6.982;2024-02-28T11:15:16;12.80;99.90
16243;DHT22;11719;51.052;6.982;2024-02-28T11:17:49;12.70;99.90
16243;DHT22;11719;51.052;6.982;2024-02-28T11:20:15;12.60;99.90
16243;DHT22;11719;51.052;6.982;2024-02-28T11:22:44;12.80;99.90
16243;DHT22;11719;51.052;6.982;2024-02-28T11:25:15;13.00;99.90
16243;DHT22;11719;51.052;6.982;2024-02-28T11:27:49;13.20;99.90
16243;DHT22;11719;51.052;6.982;2024-02-28T11:30:19;13.50;99.90
16243;DHT22;11719;51.052;6.982;2024-02-28T11:33:17;13.50;99.90
16243;DHT22;11719;51.052;6.982;2024-02-28T11:36:21;13.40;99.90
16243;DHT22;11719;51.052;6.982;2024-02-28T11:39:02;13.40;99.90
16243;DHT22;11719;51.052;6.982;2024-02-28T11:41:38;13.30;99.90
16243;DHT22;11719;51.052;6.982;2024-02-28T11:44:07;13.10;99.90
16243;DHT22;11719;51.052;6.982;2024-02-28T11:46:33;13.00;99.90
16243;DHT22;11719;51.052;6.982;2024-02-28T11:49:03;13.20;99.90
16243;DHT22;11719;51.052;6.982;2024-02-28T11:51:38;13.60;99.90
16243;DHT22;11719;51.052;6.982;2024-02-28T11:54:09;13.70;99.90
16243;DHT22;11719;51.052;6.982;2024-02-28T11:56:39;13.90;99.90
16243;DHT22;11719;51.052;6.982;2024-02-28T11:59:08;13.80;99.90
16243;DHT22;11719;51.052;6.982;2024-02-28T12:01:43;13.80;99.90
16243;DHT22;11719;51.052;6.982;2024-02-28T12:04:20;13.90;99.90
16243;DHT22;11719;51.052;6.982;2024-02-28T12:06:53;13.80;99.90
16243;DHT22;11719;51.052;6.982;2024-02-28T12:09:37;13.80;99.90
16243;DHT22;11719;51.052;6.982;2024-02-28T12:12:12;13.90;99.90
16243;DHT22;11719;51.052;6.982;2024-02-28T12:14:46;13.90;99.90
16243;DHT22;11719;51.052;6.982;2024-02-28T12:17:35;13.80;99.90
16243;DHT22;11719;51.052;6.982;2024-02-28T12:20:01;14.00;99.90
16243;DHT22;11719;51.052;6.982;2024-02-28T12:22:27;14.20;99.90
16243;DHT22;11719;51.052;6.982;2024-02-28T12:24:59;14.40;99.90
16243;DHT22;11719;51.052;6.982;2024-02-28T12:27:42;14.50;99.90
16243;DHT22;11719;51.052;6.982;2024-02-28T12:30:21;14.30;99.90
16243;DHT22;11719;51.052;6.982;2024-02-28T12:32:48;14.40;99.90
16243;DHT22;11719;51.052;6.982;2024-02-28T12:35:23;14.30;99.90
16243;DHT22;11719;51.052;6.982;2024-02-28T12:38:13;14.40;99.90
16243;DHT22;11719;51.052;6.982;2024-02-28T12:40:59;14.20;99.90
16243;DHT22;11719;51.052;6.982;2024-02-28T12:43:51;14.10;99.90
16243;DHT22;11719;51.052;6.982;2024-02-28T12:49:46;13.80;99.90
16243;DHT22;11719;51.052;6.982;2024-02-28T12:52:29;14.00;99.90
16243;DHT22;11719;51.052;6.982;2024-02-28T12:55:09;14.30;99.90
16243;DHT22;11719;51.052;6.982;2024-02-28T12:58:07;14.10;99.90
16243;DHT22;11719;51.052;6.982;2024-02-28T13:00:45;14.00;99.90
16243;DHT22;11719;51.052;6.982;2024-02-28T13:03:25;14.00;99.90
16243;DHT22;11719;51.052;6.982;2024-02-28T13:06:26;14.10;99.90
16243;DHT22;11719;51.052;6.982;2024-02-28T13:08:59;14.10;99.90
16243;DHT22;11719;51.052;6.982;2024-02-28T13:11:28;14.00;99.90
16243;DHT22;11719;51.052;6.982;2024-02-28T13:13:53;14.00;99.90
16243;DHT22;11719;51.052;6.982;2024-02-28T13:16:28;14.00;99.90
16243;DHT22;11719;51.052;6.982;2024-02-28T13:19:06;13.90;99.90
16243;DHT22;11719;51.052;6.982;2024-02-28T13:21:41;14.10;99.90
16243;DHT22;11719;51.052;6.982;2024-02-28T13:24:35;14.00;99.90
16243;DHT22;11719;51.052;6.982;2024-02-28T13:27:13;14.30;99.90
16243;DHT22;11719;51.052;6.982;2024-02-28T13:29:43;14.50;99.90
16243;DHT22;11719;51.052;6.982;2024-02-28T13:32:12;14.50;99.90
16243;DHT22;11719;51.052;6.982;2024-02-28T13:34:52;14.70;99.90
16243;DHT22;11719;51.052;6.982;2024-02-28T13:37:22;14.80;99.90
16243;DHT22;11719;51.052;6.982;2024-02-28T13:40:21;15.00;99.90
16243;DHT22;11719;51.052;6.982;2024-02-28T13:43:00;14.90;99.90
16243;DHT22;11719;51.052;6.982;2024-02-28T13:45:49;14.80;99.90
16243;DHT22;11719;51.052;6.982;2024-02-28T13:49:08;14.70;99.90
16243;DHT22;11719;51.052;6.982;2024-02-28T13:51:37;14.60;99.90
16243;DHT22;11719;51.052;6.982;2024-02-28T13:54:21;14.60;99.90
16243;DHT22;11719;51.052;6.982;2024-02-28T13:57:09;14.60;99.50
16243;DHT22;11719;51.052;6.982;2024-02-28T14:00:17;14.60;99.90
16243;DHT22;11719;51.052;6.982;2024-02-28T14:10:02;15.10;99.90
16243;DHT22;11719;51.052;6.982;2024-02-28T14:12:56;15.10;95.60
16243;DHT22;11719;51.052;6.982;2024-02-28T14:22:25;15.80;99.90
16243;DHT22;11719;51.052;6.982;2024-02-28T14:25:38;15.70;99.90
16243;DHT22;11719;51.052;6.982;2024-02-28T14:47:33;16.70;99.90
16243;DHT22;11719;51.052;6.982;2024-02-28T14:50:16;16.60;99.90
16243;DHT22;11719;51.052;6.982;2024-02-28T14:52:45;16.50;99.90
16243;DHT22;11719;51.052;6.982;2024-02-28T14:55:57;16.50;99.90
16243;DHT22;11719;51.052;6.982;2024-02-28T14:59:11;16.40;99.90
16243;DHT22;11719;51.052;6.982;2024-02-28T15:02:08;16.30;99.90
16243;DHT22;11719;51.052;6.982;2024-02-28T15:04:52;16.30;99.90
16243;DHT22;11719;51.052;6.982;2024-02-28T15:07:28;16.30;99.90
16243;DHT22;11719;51.052;6.982;2024-02-28T15:10:21;16.30;99.90
16243;DHT22;11719;51.052;6.982;2024-02-28T15:12:57;16.30;99.90
16243;DHT22;11719;51.052;6.982;2024-02-28T15:15:44;16.30;99.90
16243;DHT22;11719;51.052;6.982;2024-02-28T15:21:20;16.30;99.90
16243;DHT22;11719;51.052;6.982;2024-02-28T15:24:00;16.20;99.90
16243;DHT22;11719;51.052;6.982;2024-02-28T15:30:26;16.20;99.90
16243;DHT22;11719;51.052;6.982;2024-02-28T15:33:27;15.90;97.80
16243;DHT22;11719;51.052;6.982;2024-02-28T15:35:53;15.60;99.90
16243;DHT22;11719;51.052;6.982;2024-02-28T15:38:26;15.40;96.80
16243;DHT22;11719;51.052;6.982;2024-02-28T15:40:56;15.10;98.40
16243;DHT22;11719;51.052;6.982;2024-02-28T15:43:22;14.90;96.90
16243;DHT22;11719;51.052;6.982;2024-02-28T15:45:47;14.80;97.70
16243;DHT22;11719;51.052;6.982;2024-02-28T15:48:23;14.70;99.90
16243;DHT22;11719;51.052;6.982;2024-02-28T15:50:49;14.70;99.90
16243;DHT22;11719;51.052;6.982;2024-02-28T15:53:22;14.70;99.90
16243;DHT22;11719;51.052;6.982;2024-02-28T15:55:52;14.90;99.90
16243;DHT22;11719;51.052;6.982;2024-02-28T15:58:18;14.90;99.90
16243;DHT22;11719;51.052;6.982;2024-02-28T16:00:44;14.90;99.90
16243;DHT22;11719;51.052;6.982;2024-02-28T16:03:10;14.90;99.90
16243;DHT22;11719;51.052;6.982;2024-02-28T16:05:36;14.80;99.90
16243;DHT22;11719;51.052;6.982;2024-02-28T16:08:01;14.60;99.90
16243;DHT22;11719;51.052;6.982;2024-02-28T16:10:32;14.50;99.90
16243;DHT22;11719;51.052;6.982;2024-02-28T16:16:06;14.30;99.90
16243;DHT22;11719;51.052;6.982;2024-02-28T16:18:32;14.30;99.90
16243;DHT22;11719;51.052;6.982;2024-02-28T16:21:01;14.30;99.90
16243;DHT22;11719;51.052;6.982;2024-02-28T16:23:38;14.10;99.90
16243;DHT22;11719;51.052;6.982;2024-02-28T16:26:28;14.10;99.90
16243;DHT22;11719;51.052;6.982;2024-02-28T16:29:03;14.20;99.90
16243;DHT22;11719;51.052;6.982;2024-02-28T16:31:28;14.10;99.90
16243;DHT22;11719;51.052;6.982;2024-02-28T16:33:54;14.10;99.90
16243;DHT22;11719;51.052;6.982;2024-02-28T16:36:36;14.10;99.90
16243;DHT22;11719;51.052;6.982;2024-02-28T16:39:28;14.10;99.90
16243;DHT22;11719;51.052;6.982;2024-02-28T16:42:15;14.00;99.90
16243;DHT22;11719;51.052;6.982;2024-02-28T16:45:06;14.00;99.90
16243;DHT22;11719;51.052;6.982;2024-02-28T16:47:38;13.80;99.90
16243;DHT22;11719;51.052;6.982;2024-02-28T16:50:40;13.80;99.90
16243;DHT22;11719;51.052;6.982;2024-02-28T16:53:13;13.90;99.90
16243;DHT22;11719;51.052;6.982;2024-02-28T16:56:06;13.80;99.90
16243;DHT22;11719;51.052;6.982;2024-02-28T16:58:41;13.80;99.90
16243;DHT22;11719;51.052;6.982;2024-02-28T17:01:24;14.00;99.90
16243;DHT22;11719;51.052;6.982;2024-02-28T17:03:57;14.10;99.90
16243;DHT22;11719;51.052;6.982;2024-02-28T17:06:34;14.20;99.90
16243;DHT22;11719;51.052;6.982;2024-02-28T17:09:03;14.20;99.90
16243;DHT22;11719;51.052;6.982;2024-02-28T17:11:28;14.20;99.90
16243;DHT22;11719;51.052;6.982;2024-02-28T17:13:54;14.30;99.90
16243;DHT22;11719;51.052;6.982;2024-02-28T17:16:20;14.30;99.90
16243;DHT22;11719;51.052;6.982;2024-02-28T17:18:59;14.10;99.90
16243;DHT22;11719;51.052;6.982;2024-02-28T17:21:24;14.10;99.90
16243;DHT22;11719;51.052;6.982;2024-02-28T17:23:50;14.10;99.90
16243;DHT22;11719;51.052;6.982;2024-02-28T17:26:16;14.10;99.90
16243;DHT22;11719;51.052;6.982;2024-02-28T17:28:44;14.10;99.90